createdAt,value
2023-02-27T00:02:20.897Z,1.27
2023-02-27T00:04:49.330Z,1.83
2023-02-27T00:07:18.443Z,1.23
2023-02-27T00:09:46.771Z,1.95
2023-02-27T00:12:15.538Z,1.65
2023-02-27T00:14:43.832Z,1.77
2023-02-27T00:17:12.073Z,1.98
2023-02-27T00:19:40.552Z,2.67
2023-02-27T00:22:08.811Z,2.53
2023-02-27T00:24:37.077Z,2.63
2023-02-27T00:27:05.316Z,4.32
2023-02-27T00:29:33.545Z,2.42
2023-02-27T00:32:01.831Z,5.78
2023-02-27T00:34:30.186Z,4.22
2023-02-27T00:36:58.423Z,4.18
2023-02-27T00:39:26.718Z,3.53
2023-02-27T00:41:54.945Z,3.30
2023-02-27T00:44:23.181Z,4.45
2023-02-27T00:46:51.505Z,4.65
2023-02-27T00:49:20.636Z,3.72
2023-02-27T00:51:48.953Z,4.78
2023-02-27T00:54:17.165Z,4.20
2023-02-27T00:56:45.370Z,5.35
2023-02-27T00:59:13.805Z,3.25
2023-02-27T01:01:42.141Z,5.25
2023-02-27T01:04:10.352Z,4.22
2023-02-27T01:06:38.622Z,3.58
2023-02-27T01:09:07.029Z,5.70
2023-02-27T01:11:35.300Z,2.67
2023-02-27T01:14:03.706Z,5.00
2023-02-27T01:16:32.301Z,4.18
2023-02-27T01:19:00.706Z,3.80
2023-02-27T01:21:29.103Z,6.22
2023-02-27T01:23:57.437Z,3.45
2023-02-27T01:26:26.534Z,4.35
2023-02-27T01:28:55.026Z,5.50
2023-02-27T01:31:23.316Z,5.25
2023-02-27T01:33:51.624Z,4.00
2023-02-27T01:36:19.864Z,3.17
2023-02-27T01:38:48.358Z,4.10
2023-02-27T01:41:16.736Z,3.05
2023-02-27T01:44:03.206Z,2.75
2023-02-27T01:46:32.941Z,1.92
2023-02-27T01:49:06.748Z,2.97
2023-02-27T01:51:39.104Z,4.75
2023-02-27T01:54:10.502Z,5.63
2023-02-27T01:56:39.656Z,2.95
2023-02-27T01:59:10.401Z,2.97
2023-02-27T02:01:39.874Z,3.55
2023-02-27T02:04:34.340Z,2.85
2023-02-27T02:07:20.413Z,3.80
2023-02-27T02:09:54.881Z,4.10
2023-02-27T02:12:26.700Z,4.63
2023-02-27T02:14:55.016Z,4.78
2023-02-27T02:17:26.223Z,3.40
2023-02-27T02:20:13.814Z,3.22
2023-02-27T02:23:07.727Z,3.20
2023-02-27T02:26:14.302Z,4.40
2023-02-27T02:29:06.235Z,3.40
2023-02-27T02:31:55.531Z,4.93
2023-02-27T02:34:40.637Z,3.22
2023-02-27T02:39:51.571Z,2.30
2023-02-27T02:42:45.666Z,3.90
2023-02-27T02:45:32.231Z,3.47
2023-02-27T02:48:17.000Z,3.80
2023-02-27T02:51:21.101Z,4.78
2023-02-27T02:53:52.866Z,3.15
2023-02-27T02:56:51.272Z,6.60
2023-02-27T02:59:42.585Z,4.50
2023-02-27T03:02:17.305Z,6.25
2023-02-27T03:04:59.181Z,3.67
2023-02-27T03:07:43.337Z,3.25
2023-02-27T03:10:32.399Z,4.00
2023-02-27T03:13:06.451Z,2.80
2023-02-27T03:15:54.271Z,3.13
2023-02-27T03:18:28.182Z,4.13
2023-02-27T03:21:01.490Z,3.80
2023-02-27T03:23:46.206Z,3.40
2023-02-27T03:26:20.076Z,4.57
2023-02-27T03:29:02.772Z,3.13
2023-02-27T03:31:39.659Z,4.10
2023-02-27T03:34:34.542Z,3.42
2023-02-27T03:37:31.105Z,3.17
2023-02-27T03:40:26.275Z,1.83
2023-02-27T03:43:17.502Z,2.90
2023-02-27T03:46:11.934Z,4.30
2023-02-27T03:48:45.350Z,2.93
2023-02-27T03:51:17.153Z,4.75
2023-02-27T03:54:03.924Z,7.13
2023-02-27T03:56:56.684Z,7.20
2023-02-27T03:59:27.125Z,2.90
2023-02-27T04:01:57.766Z,4.45
2023-02-27T04:04:28.441Z,4.45
2023-02-27T04:07:24.007Z,4.80
2023-02-27T04:10:11.080Z,5.30
2023-02-27T04:13:20.400Z,4.43
2023-02-27T04:16:01.506Z,5.78
2023-02-27T04:18:50.090Z,6.03
2023-02-27T04:21:38.011Z,7.28
2023-02-27T04:24:30.637Z,11.43
2023-02-27T04:27:16.783Z,6.85
2023-02-27T04:29:44.922Z,5.25
2023-02-27T04:32:23.335Z,6.65
2023-02-27T04:35:18.549Z,7.47
2023-02-27T04:38:19.000Z,5.85
2023-02-27T04:41:07.155Z,8.07
2023-02-27T04:43:38.448Z,4.55
2023-02-27T04:46:11.781Z,8.63
2023-02-27T04:48:54.166Z,6.57
2023-02-27T04:51:33.086Z,8.70
2023-02-27T04:54:14.928Z,6.45
2023-02-27T04:56:48.743Z,6.93
2023-02-27T04:59:29.553Z,8.23
2023-02-27T05:02:06.229Z,5.50
2023-02-27T05:04:38.340Z,6.13
2023-02-27T05:07:10.492Z,5.00
2023-02-27T05:10:00.866Z,6.57
2023-02-27T05:13:00.632Z,5.43
2023-02-27T05:15:38.127Z,9.95
2023-02-27T05:18:09.911Z,6.47
2023-02-27T05:20:47.563Z,8.88
2023-02-27T05:23:29.591Z,5.55
2023-02-27T05:26:31.800Z,7.22
2023-02-27T05:29:07.271Z,6.82
2023-02-27T05:32:04.866Z,8.23
2023-02-27T05:34:42.370Z,5.00
2023-02-27T05:37:34.617Z,7.35
2023-02-27T05:40:09.264Z,5.50
2023-02-27T05:45:19.095Z,7.90
2023-02-27T05:47:55.256Z,7.95
2023-02-27T05:50:28.887Z,6.50
2023-02-27T05:53:00.430Z,6.63
2023-02-27T05:55:51.034Z,10.25
2023-02-27T05:58:33.307Z,9.38
2023-02-27T06:01:04.464Z,9.38
2023-02-27T06:03:35.678Z,8.40
2023-02-27T06:06:07.292Z,5.88
2023-02-27T06:08:35.952Z,8.70
2023-02-27T06:11:04.238Z,9.60
2023-02-27T06:13:32.551Z,6.20
2023-02-27T06:16:01.004Z,7.68
2023-02-27T06:18:29.419Z,7.20
2023-02-27T06:20:58.327Z,10.55
2023-02-27T06:23:26.846Z,6.00
2023-02-27T06:25:55.177Z,5.65
2023-02-27T06:28:23.570Z,6.25
2023-02-27T06:30:56.356Z,6.47
2023-02-27T06:33:26.833Z,5.50
2023-02-27T06:35:55.196Z,6.30
2023-02-27T06:38:23.423Z,10.88
2023-02-27T06:40:53.125Z,6.32
2023-02-27T06:43:23.705Z,6.55
2023-02-27T06:45:55.770Z,8.85
2023-02-27T06:48:24.071Z,9.05
2023-02-27T06:50:57.147Z,6.18
2023-02-27T06:53:26.235Z,6.43
2023-02-27T06:55:54.574Z,7.68
2023-02-27T06:58:22.815Z,4.65
2023-02-27T07:00:51.141Z,7.60
2023-02-27T07:03:19.413Z,9.48
2023-02-27T07:05:47.947Z,10.38
2023-02-27T07:08:18.324Z,7.80
2023-02-27T07:10:48.022Z,6.88
2023-02-27T07:13:19.304Z,6.90
2023-02-27T07:15:47.953Z,11.73
2023-02-27T07:18:16.304Z,10.77
2023-02-27T07:20:44.504Z,15.63
2023-02-27T07:23:12.769Z,10.43
2023-02-27T07:25:41.015Z,7.63
2023-02-27T07:28:09.273Z,7.63
2023-02-27T07:30:37.483Z,7.38
2023-02-27T07:33:05.930Z,8.00
2023-02-27T07:35:34.159Z,7.50
2023-02-27T07:38:02.375Z,8.10
2023-02-27T07:40:30.697Z,8.02
2023-02-27T07:42:58.941Z,8.65
2023-02-27T07:45:27.228Z,11.95
2023-02-27T07:47:55.629Z,7.55
2023-02-27T07:50:23.834Z,7.97
2023-02-27T07:52:53.264Z,7.03
2023-02-27T07:55:21.484Z,8.27
2023-02-27T07:57:50.082Z,7.07
2023-02-27T08:00:20.049Z,8.43
2023-02-27T08:02:48.367Z,5.63
2023-02-27T08:05:16.606Z,7.30
2023-02-27T08:07:44.815Z,9.40
2023-02-27T08:10:13.886Z,6.88
2023-02-27T08:12:42.145Z,9.85
2023-02-27T08:15:10.877Z,7.32
2023-02-27T08:17:39.081Z,9.77
2023-02-27T08:20:12.566Z,7.18
2023-02-27T08:22:41.489Z,8.13
2023-02-27T08:25:12.106Z,7.20
2023-02-27T08:27:40.889Z,7.72
2023-02-27T08:30:11.294Z,8.02
2023-02-27T08:32:40.238Z,6.20
2023-02-27T08:35:08.877Z,8.30
2023-02-27T08:37:37.114Z,7.47
2023-02-27T08:40:07.966Z,8.43
2023-02-27T08:42:36.166Z,10.32
2023-02-27T08:45:05.066Z,7.80
2023-02-27T08:47:33.497Z,7.50
2023-02-27T08:50:02.001Z,8.15
2023-02-27T08:52:30.189Z,8.77
2023-02-27T08:54:58.441Z,6.05
2023-02-27T08:57:26.791Z,5.97
2023-02-27T08:59:55.038Z,7.95
2023-02-27T09:02:27.221Z,5.53
2023-02-27T09:04:55.476Z,8.25
2023-02-27T09:07:23.730Z,7.85
2023-02-27T09:09:51.926Z,6.40
2023-02-27T09:12:20.149Z,6.38
2023-02-27T09:14:48.584Z,5.85
2023-02-27T09:17:17.944Z,6.50
2023-02-27T09:19:46.269Z,5.60
2023-02-27T09:22:14.492Z,5.45
2023-02-27T09:24:42.724Z,4.97
2023-02-27T09:27:10.927Z,7.30
2023-02-27T09:29:39.267Z,5.13
2023-02-27T09:32:07.584Z,3.67
2023-02-27T09:34:36.251Z,4.35
2023-02-27T09:37:04.503Z,5.03
2023-02-27T09:39:32.788Z,4.90
2023-02-27T09:42:16.345Z,5.80
2023-02-27T09:44:53.506Z,7.53
2023-02-27T09:47:42.272Z,6.05
2023-02-27T09:50:22.972Z,6.40
2023-02-27T09:52:51.617Z,5.55
2023-02-27T09:55:23.203Z,9.02
2023-02-27T09:57:59.740Z,5.50
2023-02-27T10:00:50.850Z,6.15
2023-02-27T10:03:54.706Z,7.03
2023-02-27T10:06:31.532Z,6.72
2023-02-27T10:09:55.370Z,6.35
2023-02-27T10:12:36.698Z,8.20
2023-02-27T10:15:49.000Z,7.40
2023-02-27T10:18:28.383Z,6.20
2023-02-27T10:21:14.368Z,5.35
2023-02-27T10:24:13.581Z,8.07
2023-02-27T10:26:44.928Z,8.70
2023-02-27T10:29:32.346Z,5.97
2023-02-27T10:32:13.267Z,5.10
2023-02-27T10:34:44.928Z,6.75
2023-02-27T10:37:17.434Z,5.47
2023-02-27T10:39:58.614Z,6.72
2023-02-27T10:42:32.729Z,6.50
2023-02-27T10:45:01.046Z,6.55
2023-02-27T10:47:29.315Z,5.18
2023-02-27T10:50:01.133Z,5.15
2023-02-27T10:52:29.350Z,7.47
2023-02-27T10:55:17.551Z,6.57
2023-02-27T10:57:47.645Z,6.75
2023-02-27T11:00:53.922Z,5.20
2023-02-27T11:03:26.573Z,5.95
2023-02-27T11:06:11.322Z,8.02
2023-02-27T11:08:39.604Z,4.93
2023-02-27T11:11:13.136Z,6.80
2023-02-27T11:13:43.604Z,7.28
2023-02-27T11:16:17.528Z,5.88
2023-02-27T11:18:48.260Z,6.32
2023-02-27T11:21:28.038Z,7.30
2023-02-27T11:24:10.882Z,4.75
2023-02-27T11:26:41.809Z,4.97
2023-02-27T11:29:16.105Z,6.72
2023-02-27T11:31:57.482Z,5.93
2023-02-27T11:34:32.763Z,5.97
2023-02-27T11:37:20.087Z,5.20
2023-02-27T11:40:05.541Z,8.13
2023-02-27T11:42:36.991Z,5.85
2023-02-27T11:46:09.897Z,8.63
2023-02-27T11:48:22.001Z,6.78
2023-02-27T11:50:57.907Z,7.50
2023-02-27T11:53:42.648Z,7.22
2023-02-27T11:56:17.000Z,7.10
2023-02-27T11:58:54.190Z,9.35
2023-02-27T12:01:32.037Z,5.20
2023-02-27T12:04:17.418Z,7.78
2023-02-27T12:06:54.008Z,7.43
2023-02-27T12:09:37.075Z,7.20
2023-02-27T12:12:13.756Z,8.25
2023-02-27T12:14:52.979Z,9.02
2023-02-27T12:17:44.048Z,9.57
2023-02-27T12:20:24.838Z,8.52
2023-02-27T12:22:55.596Z,6.85
2023-02-27T12:25:32.691Z,6.95
2023-02-27T12:28:03.598Z,9.95
2023-02-27T12:30:40.044Z,9.02
2023-02-27T12:33:50.826Z,10.70
2023-02-27T12:36:19.288Z,9.68
2023-02-27T12:38:47.744Z,8.13
2023-02-27T12:41:24.257Z,8.13
2023-02-27T12:44:06.840Z,9.60
2023-02-27T12:46:56.020Z,8.23
2023-02-27T12:49:37.878Z,6.22
2023-02-27T12:52:27.784Z,6.05
2023-02-27T12:55:19.856Z,7.65
2023-02-27T12:58:25.094Z,6.82
2023-02-27T13:01:00.592Z,5.75
2023-02-27T13:03:43.557Z,3.95
2023-02-27T13:06:23.101Z,7.88
2023-02-27T13:09:09.965Z,5.85
2023-02-27T13:11:54.929Z,5.18
2023-02-27T13:14:39.017Z,8.05
2023-02-27T13:17:19.748Z,6.70
2023-02-27T13:20:10.948Z,8.27
2023-02-27T13:22:48.411Z,8.63
2023-02-27T13:25:19.035Z,6.22
2023-02-27T13:27:57.555Z,7.43
2023-02-27T13:30:40.199Z,6.85
2023-02-27T13:33:34.854Z,7.93
2023-02-27T13:36:37.142Z,6.80
2023-02-27T13:39:05.563Z,10.73
2023-02-27T13:41:39.311Z,5.65
2023-02-27T13:44:23.504Z,6.47
2023-02-27T13:46:51.779Z,8.53
2023-02-27T13:49:29.631Z,6.57
2023-02-27T13:52:05.964Z,9.80
2023-02-27T13:54:40.757Z,12.00
2023-02-27T13:59:54.667Z,9.35
2023-02-27T14:02:31.889Z,10.98
2023-02-27T14:05:03.497Z,5.85
2023-02-27T14:07:58.702Z,8.15
2023-02-27T14:10:31.329Z,7.25
2023-02-27T14:13:00.117Z,8.40
2023-02-27T14:15:35.350Z,6.32
2023-02-27T14:18:17.789Z,6.10
2023-02-27T14:20:52.746Z,8.57
2023-02-27T14:23:27.505Z,7.28
2023-02-27T14:28:32.549Z,8.63
2023-02-27T14:31:06.781Z,8.68
2023-02-27T14:33:47.629Z,4.32
2023-02-27T14:36:21.549Z,10.18
2023-02-27T14:38:54.948Z,6.35
2023-02-27T14:41:52.512Z,7.88
2023-02-27T14:44:23.708Z,7.30
2023-02-27T14:46:55.361Z,7.18
2023-02-27T14:49:28.993Z,8.10
2023-02-27T14:51:57.747Z,8.18
2023-02-27T14:54:28.588Z,5.95
2023-02-27T14:57:08.104Z,6.18
2023-02-27T14:59:45.550Z,6.30
2023-02-27T15:02:33.107Z,4.22
2023-02-27T15:05:04.555Z,8.40
2023-02-27T15:07:35.675Z,5.75
2023-02-27T15:10:09.121Z,10.63
2023-02-27T15:12:41.136Z,7.82
2023-02-27T15:15:11.906Z,6.43
2023-02-27T15:17:46.973Z,8.75
2023-02-27T15:20:31.066Z,5.05
2023-02-27T15:23:01.103Z,7.93
2023-02-27T15:25:29.260Z,7.28
2023-02-27T15:28:06.572Z,7.13
2023-02-27T15:30:35.244Z,9.18
2023-02-27T15:33:03.723Z,8.93
2023-02-27T15:35:38.106Z,7.80
2023-02-27T15:38:06.982Z,11.40
2023-02-27T15:40:37.041Z,7.40
2023-02-27T15:43:05.759Z,8.10
2023-02-27T15:45:36.920Z,6.45
2023-02-27T15:48:06.103Z,11.48
2023-02-27T15:50:44.293Z,7.18
2023-02-27T15:53:15.986Z,8.05
2023-02-27T15:55:54.524Z,6.38
2023-02-27T15:58:30.887Z,9.43
2023-02-27T16:01:07.539Z,9.13
2023-02-27T16:03:41.463Z,9.05
2023-02-27T16:06:20.639Z,6.57
2023-02-27T16:08:56.920Z,9.07
2023-02-27T16:11:34.316Z,7.32
2023-02-27T16:14:03.245Z,8.48
2023-02-27T16:16:40.282Z,7.85
2023-02-27T16:19:30.207Z,10.25
2023-02-27T16:22:20.490Z,7.40
2023-02-27T16:24:50.489Z,7.43
2023-02-27T16:27:27.807Z,6.88
2023-02-27T16:30:03.258Z,9.27
2023-02-27T16:32:37.121Z,10.93
2023-02-27T16:35:08.926Z,9.25
2023-02-27T16:37:42.222Z,10.43
2023-02-27T16:40:20.887Z,10.00
2023-02-27T16:42:49.768Z,4.45
2023-02-27T16:45:35.966Z,4.97
2023-02-27T16:48:04.580Z,4.57
2023-02-27T16:50:41.625Z,7.80
2023-02-27T16:53:10.134Z,6.30
2023-02-27T16:55:44.291Z,7.53
2023-02-27T16:58:16.641Z,7.55
2023-02-27T17:00:45.614Z,5.63
2023-02-27T17:03:15.184Z,6.82
2023-02-27T17:05:43.452Z,8.18
2023-02-27T17:08:12.651Z,6.78
2023-02-27T17:10:40.893Z,5.57
2023-02-27T17:13:09.143Z,7.80
2023-02-27T17:15:37.370Z,4.60
2023-02-27T17:18:05.598Z,5.60
2023-02-27T17:20:33.936Z,3.15
2023-02-27T17:23:02.202Z,6.72
2023-02-27T17:25:30.757Z,7.40
2023-02-27T17:27:58.964Z,5.20
2023-02-27T17:30:27.296Z,4.53
2023-02-27T17:32:56.879Z,4.65
2023-02-27T17:35:26.598Z,5.43
2023-02-27T17:37:54.838Z,6.10
2023-02-27T17:40:23.121Z,4.07
2023-02-27T17:42:51.538Z,6.32
2023-02-27T17:45:22.000Z,3.92
2023-02-27T17:47:51.014Z,2.67
2023-02-27T17:50:19.403Z,4.10
2023-02-27T17:52:47.660Z,5.40
2023-02-27T17:55:17.506Z,3.63
2023-02-27T17:57:45.786Z,6.65
2023-02-27T18:00:16.034Z,7.45
2023-02-27T18:02:47.252Z,7.40
2023-02-27T18:05:16.033Z,4.75
2023-02-27T18:07:44.522Z,7.15
2023-02-27T18:10:15.056Z,5.85
2023-02-27T18:12:43.737Z,6.50
2023-02-27T18:15:12.350Z,4.78
2023-02-27T18:17:40.608Z,5.78
2023-02-27T18:20:10.023Z,5.78
2023-02-27T18:22:38.271Z,10.65
2023-02-27T18:25:07.051Z,4.80
2023-02-27T18:27:35.329Z,9.82
2023-02-27T18:30:04.412Z,10.15
2023-02-27T18:32:32.654Z,5.38
2023-02-27T18:35:00.906Z,7.70
2023-02-27T18:37:29.141Z,6.22
2023-02-27T18:39:57.414Z,1.58
2023-02-27T18:42:25.621Z,4.20
2023-02-27T18:44:53.951Z,1.38
2023-02-27T18:47:22.255Z,2.58
2023-02-27T18:49:51.790Z,1.20
2023-02-27T18:52:20.066Z,1.00
2023-02-27T18:54:48.326Z,1.13
2023-02-27T18:57:19.838Z,1.60
2023-02-27T18:59:48.507Z,1.75
2023-02-27T19:02:20.466Z,0.68
2023-02-27T19:04:49.717Z,0.95
2023-02-27T19:07:18.581Z,1.90
2023-02-27T19:09:46.919Z,0.98
2023-02-27T19:12:15.155Z,0.50
2023-02-27T19:14:43.398Z,0.70
2023-02-27T19:17:11.686Z,0.30
2023-02-27T19:19:39.984Z,0.50
2023-02-27T19:22:08.187Z,1.33
2023-02-27T19:24:36.433Z,0.88
2023-02-27T19:27:04.693Z,1.05
2023-02-27T19:29:32.891Z,0.70
2023-02-27T19:32:02.984Z,1.05
2023-02-27T19:34:31.645Z,1.75
2023-02-27T19:36:59.895Z,0.88
2023-02-27T19:39:28.304Z,0.73
2023-02-27T19:41:57.373Z,1.50
2023-02-27T19:44:27.364Z,0.30
2023-02-27T19:46:55.630Z,0.75
2023-02-27T19:49:23.918Z,0.35
2023-02-27T19:51:52.151Z,1.17
2023-02-27T19:54:20.605Z,1.27
2023-02-27T19:56:49.259Z,0.28
2023-02-27T19:59:18.610Z,0.40
2023-02-27T20:01:46.817Z,0.38
2023-02-27T20:04:15.309Z,0.75
2023-02-27T20:06:46.057Z,1.33
2023-02-27T20:09:16.922Z,1.10
2023-02-27T20:11:46.764Z,0.82
2023-02-27T20:14:17.358Z,0.68
2023-02-27T20:16:46.174Z,1.70
2023-02-27T20:19:19.768Z,1.50
2023-02-27T20:21:48.760Z,1.38
2023-02-27T20:24:18.928Z,1.05
2023-02-27T20:26:50.286Z,2.15
2023-02-27T20:29:21.360Z,1.23
2023-02-27T20:31:52.162Z,1.90
2023-02-27T20:34:23.914Z,9.98
2023-02-27T20:36:53.031Z,2.72
2023-02-27T20:39:22.382Z,2.40
2023-02-27T20:41:51.043Z,2.88
2023-02-27T20:44:19.313Z,2.10
2023-02-27T20:46:49.421Z,1.52
2023-02-27T20:49:18.236Z,3.08
2023-02-27T20:51:46.886Z,1.77
2023-02-27T20:54:21.008Z,0.75
2023-02-27T20:56:55.191Z,1.00
2023-02-27T20:59:26.338Z,1.00
2023-02-27T21:01:55.793Z,0.88
2023-02-27T21:04:47.060Z,0.50
2023-02-27T21:07:18.571Z,3.17
2023-02-27T21:09:46.921Z,2.55
2023-02-27T21:12:15.198Z,2.00
2023-02-27T21:14:44.758Z,1.30
2023-02-27T21:17:14.590Z,2.40
2023-02-27T21:19:43.045Z,1.55
2023-02-27T21:22:12.129Z,1.85
2023-02-27T21:24:40.404Z,1.95
2023-02-27T21:27:08.730Z,2.40
2023-02-27T21:29:37.250Z,0.95
2023-02-27T21:32:10.836Z,1.90
2023-02-27T21:34:39.168Z,1.98
2023-02-27T21:37:10.775Z,1.55
2023-02-27T21:39:40.527Z,1.00
2023-02-27T21:42:08.817Z,1.38
2023-02-27T21:44:37.037Z,1.17
2023-02-27T21:47:10.791Z,2.13
2023-02-27T21:49:40.104Z,1.50
2023-02-27T21:52:08.422Z,1.35
2023-02-27T21:54:36.807Z,1.33
2023-02-27T21:57:05.535Z,0.95
2023-02-27T21:59:34.042Z,0.77
2023-02-27T22:02:03.585Z,0.93
2023-02-27T22:04:31.796Z,0.60
2023-02-27T22:07:00.166Z,1.80
2023-02-27T22:09:28.451Z,3.10
2023-02-27T22:11:56.716Z,1.85
2023-02-27T22:14:26.824Z,2.05
2023-02-27T22:16:55.074Z,1.75
2023-02-27T22:19:24.230Z,2.10
2023-02-27T22:21:52.684Z,1.25
2023-02-27T22:24:21.442Z,2.45
2023-02-27T22:26:51.175Z,2.30
2023-02-27T22:29:19.471Z,2.80
2023-02-27T22:31:47.877Z,1.65
2023-02-27T22:34:19.401Z,1.60
2023-02-27T22:36:53.306Z,4.15
2023-02-27T22:39:22.314Z,1.00
2023-02-27T22:41:51.234Z,2.05
2023-02-27T22:44:19.602Z,1.02
2023-02-27T22:46:50.934Z,1.17
2023-02-27T22:49:22.923Z,1.52
2023-02-27T22:51:52.828Z,2.70
2023-02-27T22:54:24.360Z,1.23
2023-02-27T22:56:56.336Z,1.05
2023-02-27T22:59:25.934Z,3.10
2023-02-27T23:01:54.837Z,2.55
2023-02-27T23:04:23.252Z,1.95
2023-02-27T23:06:52.829Z,2.50
2023-02-27T23:09:23.466Z,1.35
2023-02-27T23:11:55.218Z,1.25
2023-02-27T23:14:24.087Z,2.15
2023-02-27T23:16:52.496Z,0.70
2023-02-27T23:19:23.779Z,4.00
2023-02-27T23:21:52.558Z,2.88
2023-02-27T23:24:21.352Z,2.80
2023-02-27T23:26:51.955Z,2.00
2023-02-27T23:29:20.756Z,0.70
2023-02-27T23:31:49.176Z,2.85
2023-02-27T23:34:17.652Z,1.98
2023-02-27T23:36:45.875Z,4.03
2023-02-27T23:39:14.095Z,3.88
2023-02-27T23:41:42.413Z,2.58
2023-02-27T23:44:16.398Z,3.88
2023-02-27T23:46:44.641Z,4.28
2023-02-27T23:49:13.260Z,1.95
2023-02-27T23:51:41.633Z,4.18
2023-02-27T23:54:09.983Z,2.58
2023-02-27T23:56:38.360Z,5.43
2023-02-27T23:59:08.017Z,3.42
